Magnolia, Delaware
Current Conditions -  °F | °C
As of 5:58 PM on Wednesday 26 Nov 2014 (Local Time) from KDOV Reporting Station
Light Rain Light Rain  
Wind Chill: 25°   Ceiling: 700
Heat Index: 36°   Visibility: 5mi
Dew Point: 36°   Wind: 18mph
Humidity: 100%   Direction: 310°NW
Pressure: 29.85"   Gusts: NA
Location:  39.07°N, 75.48°W
Report Text: KDOV 262258Z 31016KT 5SM -RA BR BKN007 OVC014 02/02 A2985 RMK AO2A SLP112 P0003 T00210021
Loading
Personal Weather Stations






























Interactive Weather Map New forecast layout! Learn more

10-Day Weather Forecast

Advertisements
Track Severe Weather on mobile